Time;durP1;ratioP1;P1;durP2;ratioP2;P2;SDS_P1;SDS_P2;PMS_P1;PMS_P2;Temp;Humidity;BMP_temperature;BMP_pressure;BME280_temperature;BME280_humidity;BME280_pressure;Samples;Min_cycle;Max_cycle;Signal;HPM_P1;HPM_P2
2022/09/07 00:02:21;;;;;;;10.80;6.00;;;;;;;10.78;72.97;96970.23;107876;1269;25249;-78
2022/09/07 00:04:52;;;;;;;9.60;6.30;;;;;;;10.80;73.05;96969.64;107841;1270;22598;-78
2022/09/07 00:07:23;;;;;;;9.40;5.60;;;;;;;10.67;72.79;96965.66;107917;1270;22530;-79
2022/09/07 00:09:54;;;;;;;10.10;6.60;;;;;;;10.40;73.04;96964.18;107942;1270;22536;-78
2022/09/07 00:12:28;;;;;;;8.90;5.60;;;;;;;10.16;73.63;96964.34;107775;1270;26243;-78
2022/09/07 00:15:00;;;;;;;10.60;5.90;;;;;;;10.03;74.25;96963.77;107894;1270;22534;-78
2022/09/07 00:17:32;;;;;;;9.00;5.80;;;;;;;10.00;74.60;96964.94;107919;1270;22630;-78
2022/09/07 00:20:04;;;;;;;10.40;5.70;;;;;;;10.06;74.68;96961.63;107937;1270;22533;-78
2022/09/07 00:22:38;;;;;;;9.70;5.70;;;;;;;10.14;74.95;96955.12;107873;1270;31948;-78
2022/09/07 00:25:10;;;;;;;9.20;5.40;;;;;;;10.25;75.00;96952.53;107928;1270;22758;-78
2022/09/07 00:27:41;;;;;;;10.30;6.40;;;;;;;10.35;74.95;96954.11;107910;1270;25332;-78
2022/09/07 00:30:13;;;;;;;13.60;6.60;;;;;;;10.42;74.97;96955.48;107925;1269;23217;-78
2022/09/07 00:32:45;;;;;;;8.20;5.50;;;;;;;10.48;75.12;96953.61;107817;1270;27222;-78
2022/09/07 00:35:16;;;;;;;10.90;6.40;;;;;;;10.35;74.91;96957.40;107928;1270;22540;-78
2022/09/07 00:37:48;;;;;;;9.20;5.60;;;;;;;10.11;75.27;96961.43;107823;1270;25246;-78
2022/09/07 00:40:19;;;;;;;10.50;6.20;;;;;;;10.01;75.96;96965.58;107835;1270;22522;-78
2022/09/07 00:42:50;;;;;;;8.80;6.10;;;;;;;10.06;76.35;96964.61;107843;1270;25336;-78
2022/09/07 00:45:22;;;;;;;10.50;6.20;;;;;;;10.23;76.46;96961.48;107949;1270;22544;-78
2022/09/07 00:47:58;;;;;;;9.70;5.90;;;;;;;10.36;76.52;96967.20;107913;1270;22559;-78
2022/09/07 00:50:33;;;;;;;10.00;5.40;;;;;;;10.49;76.44;96962.25;107907;1270;22538;-78
2022/09/07 00:53:09;;;;;;;11.30;6.10;;;;;;;10.60;76.51;96961.16;107828;1270;30102;-78
2022/09/07 00:55:42;;;;;;;9.70;5.70;;;;;;;10.63;76.24;96960.10;107937;1270;22642;-78
2022/09/07 00:58:15;;;;;;;11.50;6.30;;;;;;;10.59;76.19;96960.54;107933;1270;24231;-78
2022/09/07 01:00:48;;;;;;;12.30;6.10;;;;;;;10.57;76.31;96963.14;106820;1270;1480534;-78
2022/09/07 01:03:25;;;;;;;9.40;6.00;;;;;;;10.42;76.47;96964.59;107939;1270;25144;-78
2022/09/07 01:06:02;;;;;;;10.10;6.60;;;;;;;10.32;76.81;96959.05;107941;1270;22690;-78
2022/09/07 01:08:36;;;;;;;10.00;6.40;;;;;;;10.28;77.25;96958.38;107969;1270;22553;-78
2022/09/07 01:11:08;;;;;;;10.00;6.00;;;;;;;10.25;77.60;96959.37;107942;1270;22547;-78
2022/09/07 01:13:41;;;;;;;11.70;6.10;;;;;;;10.23;77.81;96952.16;107901;1270;24645;-78
2022/09/07 01:16:23;;;;;;;14.00;6.40;;;;;;;10.24;77.97;96953.86;107814;1270;22787;-78
2022/09/07 01:19:14;;;;;;;9.20;5.80;;;;;;;10.31;78.06;96955.39;107906;1270;22550;-78
2022/09/07 01:21:57;;;;;;;9.50;6.10;;;;;;;10.45;78.16;96952.94;107883;1270;24885;-77
2022/09/07 01:24:52;;;;;;;12.50;6.30;;;;;;;10.42;78.14;96952.77;107854;1270;22522;-78
2022/09/07 01:27:59;;;;;;;11.80;6.80;;;;;;;10.39;78.32;96951.77;107923;1270;22763;-78
2022/09/07 01:30:34;;;;;;;11.70;6.90;;;;;;;10.47;78.28;96941.63;107927;1270;22608;-78
2022/09/07 01:33:21;;;;;;;11.00;6.30;;;;;;;10.47;78.15;96937.28;107892;1269;41515;-79
2022/09/07 01:36:06;;;;;;;10.00;6.80;;;;;;;10.37;78.13;96937.52;107868;1270;25321;-78
2022/09/07 01:38:43;;;;;;;11.20;6.70;;;;;;;10.24;78.17;96931.02;107974;1270;22544;-78
2022/09/07 01:41:21;;;;;;;14.00;7.70;;;;;;;10.20;78.36;96927.35;107916;1270;22460;-78
2022/09/07 01:43:59;;;;;;;10.10;6.50;;;;;;;10.20;78.55;96923.86;107824;1270;26141;-78
2022/09/07 01:46:34;;;;;;;12.60;6.50;;;;;;;10.27;78.79;96917.72;107993;1270;24478;-79
2022/09/07 01:49:10;;;;;;;10.40;5.80;;;;;;;10.29;78.70;96918.94;107982;1270;22638;-79
2022/09/07 01:51:47;;;;;;;9.60;6.10;;;;;;;10.33;78.86;96913.84;107995;1270;22516;-78
2022/09/07 01:54:22;;;;;;;12.20;7.00;;;;;;;10.22;78.88;96911.77;107994;1270;22525;-79
2022/09/07 01:56:57;;;;;;;11.10;7.10;;;;;;;10.11;78.96;96915.64;107951;1270;22564;-78
2022/09/07 01:59:33;;;;;;;10.70;6.70;;;;;;;10.08;79.13;96914.54;107872;1270;23080;-79
2022/09/07 02:02:08;;;;;;;10.30;6.50;;;;;;;10.08;79.34;96905.36;107854;1270;32645;-78
2022/09/07 02:04:43;;;;;;;10.30;6.60;;;;;;;10.00;79.54;96902.00;107878;1270;24194;-79
2022/09/07 02:07:20;;;;;;;10.80;7.00;;;;;;;9.96;79.87;96898.55;107979;1270;22707;-78
2022/09/07 02:09:55;;;;;;;11.50;7.00;;;;;;;9.97;80.32;96896.21;107986;1270;25413;-79
2022/09/07 02:12:35;;;;;;;11.80;7.00;;;;;;;9.98;80.41;96888.48;107902;1270;25516;-78
2022/09/07 02:15:11;;;;;;;11.90;6.40;;;;;;;10.06;80.51;96881.38;107967;1270;24940;-78
2022/09/07 02:17:49;;;;;;;11.50;7.00;;;;;;;10.21;80.70;96881.67;107925;1270;25461;-78
2022/09/07 02:20:23;;;;;;;10.30;6.30;;;;;;;10.34;80.67;96880.02;107970;1270;25478;-79
2022/09/07 02:23:00;;;;;;;9.70;6.40;;;;;;;10.44;80.37;96877.88;107808;1270;31671;-78
2022/09/07 02:25:37;;;;;;;11.60;6.80;;;;;;;10.47;80.31;96878.29;107910;1270;22694;-78
2022/09/07 02:28:14;;;;;;;10.30;6.60;;;;;;;10.45;80.30;96877.77;107942;1270;22526;-78
2022/09/07 02:30:45;;;;;;;11.50;7.00;;;;;;;10.49;80.44;96870.70;107960;1270;22541;-78
2022/09/07 02:33:17;;;;;;;11.30;6.50;;;;;;;10.56;80.61;96869.77;107879;1270;27988;-78
2022/09/07 02:35:49;;;;;;;9.50;6.70;;;;;;;10.63;80.59;96869.73;107922;1270;22537;-78
2022/09/07 02:38:20;;;;;;;10.00;6.30;;;;;;;10.64;80.63;96865.11;107965;1270;22536;-78
2022/09/07 02:40:55;;;;;;;10.80;6.60;;;;;;;10.63;80.69;96864.54;107970;1270;22537;-78
2022/09/07 02:43:28;;;;;;;9.20;6.20;;;;;;;10.66;80.62;96867.75;107925;1270;25155;-78
2022/09/07 02:46:15;;;;;;;9.90;6.10;;;;;;;10.70;80.64;96868.12;107880;1270;22617;-78
2022/09/07 02:48:56;;;;;;;8.10;5.60;;;;;;;10.76;80.33;96865.13;107996;1270;25433;-78
2022/09/07 02:51:36;;;;;;;10.70;6.10;;;;;;;10.83;80.38;96864.61;107982;1270;23691;-78
2022/09/07 02:54:25;;;;;;;8.10;5.30;;;;;;;10.92;80.38;96861.27;107961;1270;25189;-78
2022/09/07 02:57:07;;;;;;;9.20;6.00;;;;;;;11.00;80.39;96860.13;107936;1270;24025;-78
2022/09/07 02:59:55;;;;;;;9.80;6.10;;;;;;;11.08;80.47;96861.98;107923;1270;25235;-78
2022/09/07 03:02:34;;;;;;;12.40;6.40;;;;;;;11.12;80.34;96864.29;107913;1268;25451;-78
2022/09/07 03:05:12;;;;;;;10.80;6.90;;;;;;;11.16;80.29;96864.77;107884;1270;22531;-78
2022/09/07 03:07:49;;;;;;;9.80;6.10;;;;;;;11.16;79.99;96865.91;107982;1270;22755;-79
2022/09/07 03:10:21;;;;;;;9.50;6.20;;;;;;;11.05;79.74;96869.10;107952;1270;22527;-78
2022/09/07 03:12:53;;;;;;;11.10;6.50;;;;;;;10.97;79.79;96874.23;107924;1270;26468;-78
2022/09/07 03:15:28;;;;;;;9.70;5.90;;;;;;;10.91;79.79;96877.36;107955;1270;22541;-78
2022/09/07 03:17:59;;;;;;;11.30;6.20;;;;;;;10.82;80.20;96880.09;107981;1270;25257;-79
2022/09/07 03:20:30;;;;;;;11.40;7.00;;;;;;;10.81;80.52;96879.99;107942;1269;22509;-78
2022/09/07 03:23:01;;;;;;;10.90;6.30;;;;;;;10.80;80.67;96875.48;107910;1270;26105;-78
2022/09/07 03:25:32;;;;;;;11.70;6.90;;;;;;;10.83;80.80;96870.55;107946;1270;22528;-78
2022/09/07 03:28:03;;;;;;;10.80;6.50;;;;;;;10.70;80.75;96873.27;107866;1269;22515;-78
2022/09/07 03:30:35;;;;;;;10.80;6.60;;;;;;;10.54;81.06;96873.65;107947;1270;22539;-78
2022/09/07 03:33:06;;;;;;;10.20;6.50;;;;;;;10.42;81.35;96877.83;107899;1270;40304;-78
2022/09/07 03:35:37;;;;;;;9.60;6.40;;;;;;;10.34;81.67;96879.48;107973;1270;22620;-78
2022/09/07 03:38:08;;;;;;;10.20;6.70;;;;;;;10.31;81.93;96876.48;107968;1270;22550;-78
2022/09/07 03:40:39;;;;;;;12.90;6.90;;;;;;;10.31;81.99;96877.76;107983;1269;24551;-78
2022/09/07 03:43:11;;;;;;;11.10;6.70;;;;;;;10.34;81.96;96875.15;107901;1270;26286;-78
2022/09/07 03:45:42;;;;;;;12.00;6.80;;;;;;;10.40;82.08;96873.32;107961;1270;22535;-78
2022/09/07 03:48:13;;;;;;;9.40;6.10;;;;;;;10.49;82.12;96873.14;107953;1270;22531;-78
2022/09/07 03:50:45;;;;;;;10.30;6.60;;;;;;;10.60;82.12;96878.39;107911;1270;25368;-78
2022/09/07 03:53:16;;;;;;;12.60;6.80;;;;;;;10.69;82.09;96881.48;107880;1270;24845;-78
2022/09/07 03:55:57;;;;;;;9.50;6.60;;;;;;;10.78;82.06;96880.86;107952;1270;22544;-78
2022/09/07 03:58:30;;;;;;;9.50;5.70;;;;;;;10.83;81.88;96879.88;107949;1270;22766;-78
2022/09/07 04:01:05;;;;;;;11.70;7.00;;;;;;;10.80;81.77;96876.08;107862;1270;22541;-78
2022/09/07 04:03:36;;;;;;;10.20;6.10;;;;;;;10.65;81.62;96878.02;107899;1269;26009;-78
2022/09/07 04:06:07;;;;;;;9.60;6.70;;;;;;;10.48;81.88;96885.23;107953;1270;24226;-78
2022/09/07 04:08:40;;;;;;;12.30;6.90;;;;;;;10.40;82.17;96891.71;107973;1270;22535;-78
2022/09/07 04:11:15;;;;;;;8.80;6.00;;;;;;;10.41;82.40;96895.52;107970;1270;24755;-78
2022/09/07 04:13:47;;;;;;;10.00;6.60;;;;;;;10.43;82.20;96900.31;107877;1270;31688;-78
2022/09/07 04:16:20;;;;;;;10.90;6.50;;;;;;;10.41;82.17;96908.35;107891;1270;22609;-78
2022/09/07 04:18:53;;;;;;;11.00;6.50;;;;;;;10.44;82.18;96906.02;107929;1270;22550;-78
2022/09/07 04:21:26;;;;;;;11.90;6.70;;;;;;;10.50;82.31;96910.98;108000;1270;22566;-78
2022/09/07 04:24:00;;;;;;;12.30;6.50;;;;;;;10.61;82.56;96907.34;107777;1270;29708;-78
2022/09/07 04:26:34;;;;;;;10.70;7.60;;;;;;;10.74;82.48;96909.36;107929;1270;24313;-78
2022/09/07 04:29:07;;;;;;;10.00;6.70;;;;;;;10.89;82.43;96913.28;107954;1270;22544;-78
2022/09/07 04:31:41;;;;;;;11.30;7.50;;;;;;;11.12;82.31;96913.80;107924;1270;23992;-79
2022/09/07 04:34:16;;;;;;;11.50;6.40;;;;;;;11.47;82.06;96914.27;107934;1270;22568;-78
2022/09/07 04:36:47;;;;;;;8.60;6.30;;;;;;;11.94;81.53;96920.16;107926;1270;22549;-78
2022/09/07 04:39:18;;;;;;;10.20;6.60;;;;;;;12.46;80.95;96921.15;107931;1270;25353;-78
2022/09/07 04:41:50;;;;;;;7.80;6.00;;;;;;;12.90;79.74;96922.35;107888;1270;25577;-77
2022/09/07 04:44:23;;;;;;;8.80;6.30;;;;;;;13.15;78.38;96919.84;107924;1269;22573;-78
2022/09/07 04:46:54;;;;;;;9.80;6.50;;;;;;;13.11;77.09;96916.35;107918;1270;22598;-78
2022/09/07 04:49:25;;;;;;;10.40;7.00;;;;;;;12.98;76.55;96917.16;107931;1269;22611;-78
2022/09/07 04:51:56;;;;;;;9.40;7.40;;;;;;;12.82;76.23;96916.88;107873;1270;30491;-78
2022/09/07 04:54:28;;;;;;;11.00;7.70;;;;;;;12.35;75.87;96917.49;107835;1270;22583;-79
2022/09/07 04:57:01;;;;;;;10.10;6.60;;;;;;;12.41;77.01;96913.77;107957;1270;22548;-78
2022/09/07 04:59:32;;;;;;;11.50;7.20;;;;;;;12.84;76.80;96904.50;107945;1270;24262;-78
2022/09/07 05:02:03;;;;;;;11.10;6.60;;;;;;;13.05;75.81;96902.74;107876;1270;26340;-78
2022/09/07 05:04:36;;;;;;;11.20;7.60;;;;;;;13.42;76.24;96894.80;107930;1270;22540;-78
2022/09/07 05:07:07;;;;;;;11.00;7.00;;;;;;;14.26;76.18;96890.45;107945;1270;23887;-78
2022/09/07 05:09:39;;;;;;;11.90;7.00;;;;;;;15.37;75.41;96882.21;107887;1270;22519;-78
2022/09/07 05:12:11;;;;;;;9.90;6.80;;;;;;;16.39;73.48;96877.58;107903;1268;27616;-78
2022/09/07 05:14:42;;;;;;;10.10;7.10;;;;;;;17.12;70.96;96874.50;107941;1270;25205;-78
2022/09/07 05:17:13;;;;;;;9.20;6.90;;;;;;;17.82;69.37;96873.31;107881;1270;24300;-78
2022/09/07 05:19:45;;;;;;;9.90;7.20;;;;;;;18.14;66.99;96872.48;107888;1270;25352;-78
2022/09/07 05:22:18;;;;;;;9.40;6.90;;;;;;;18.50;65.39;96875.59;107842;1270;32437;-78
2022/09/07 05:24:50;;;;;;;10.10;7.60;;;;;;;18.54;63.46;96872.46;107968;1270;24444;-79
2022/09/07 05:27:21;;;;;;;11.50;7.80;;;;;;;19.07;64.06;96868.48;107952;1270;22518;-79
2022/09/07 05:29:53;;;;;;;9.90;7.20;;;;;;;20.15;63.35;96868.77;107908;1268;22522;-79
2022/09/07 05:32:24;;;;;;;9.00;6.60;;;;;;;21.22;61.93;96872.79;107885;1270;26857;-78
2022/09/07 05:34:55;;;;;;;9.40;7.10;;;;;;;22.21;60.28;96876.73;107947;1270;22527;-78
2022/09/07 05:37:27;;;;;;;9.80;6.80;;;;;;;23.09;58.77;96878.00;107938;1270;22544;-78
2022/09/07 05:39:58;;;;;;;10.80;6.90;;;;;;;23.66;56.44;96880.19;107979;1270;25324;-79
2022/09/07 05:42:29;;;;;;;11.40;7.00;;;;;;;23.95;54.80;96884.47;107866;1270;31352;-79
2022/09/07 05:45:00;;;;;;;9.40;6.80;;;;;;;24.27;53.55;96887.01;107934;1270;25420;-79
2022/09/07 05:47:32;;;;;;;9.10;6.30;;;;;;;24.73;52.76;96890.04;107954;1270;22541;-79
2022/09/07 05:50:03;;;;;;;10.00;6.90;;;;;;;24.79;50.02;96888.34;107951;1270;25241;-79
2022/09/07 05:52:37;;;;;;;9.30;6.90;;;;;;;24.73;49.54;96888.02;107820;1270;39647;-78
2022/09/07 05:55:09;;;;;;;8.70;6.40;;;;;;;24.89;48.84;96884.31;107943;1270;23090;-79
2022/09/07 05:57:40;;;;;;;8.80;6.00;;;;;;;25.12;48.14;96885.45;107997;1269;22532;-79
2022/09/07 06:00:14;;;;;;;11.90;7.00;;;;;;;25.58;48.29;96885.61;107945;1270;22625;-79
2022/09/07 06:02:45;;;;;;;8.70;6.60;;;;;;;26.23;47.04;96887.77;107890;1270;27707;-79
2022/09/07 06:05:17;;;;;;;8.70;6.80;;;;;;;26.77;46.14;96888.42;107975;1270;22587;-79
2022/09/07 06:07:50;;;;;;;9.90;6.80;;;;;;;26.98;45.03;96891.92;107958;1270;22677;-79
2022/09/07 06:10:21;;;;;;;10.70;6.50;;;;;;;27.11;44.28;96893.36;107965;1270;22549;-79
2022/09/07 06:12:52;;;;;;;8.30;6.20;;;;;;;27.29;44.14;96896.35;107895;1270;28038;-79
2022/09/07 06:15:25;;;;;;;10.00;5.70;;;;;;;27.85;43.71;96889.46;107917;1270;22581;-79
2022/09/07 06:17:56;;;;;;;7.80;6.10;;;;;;;28.29;42.00;96887.05;107933;1270;26252;-80
2022/09/07 06:20:27;;;;;;;9.00;6.10;;;;;;;28.41;42.06;96890.50;107941;1270;22542;-80
2022/09/07 06:22:59;;;;;;;8.10;5.70;;;;;;;28.79;40.77;96891.21;107873;1270;33699;-79
2022/09/07 06:25:30;;;;;;;8.90;6.30;;;;;;;28.38;39.02;96888.06;107946;1269;22758;-79
2022/09/07 06:28:01;;;;;;;8.30;5.80;;;;;;;28.08;39.91;96889.95;107936;1270;25842;-80
2022/09/07 06:30:34;;;;;;;6.60;5.60;;;;;;;28.11;38.68;96891.98;107918;1270;24028;-80
2022/09/07 06:33:05;;;;;;;7.90;5.60;;;;;;;27.50;37.38;96891.27;107873;1270;31361;-79
2022/09/07 06:35:37;;;;;;;9.10;6.50;;;;;;;27.03;38.51;96887.88;107910;1270;22553;-79
2022/09/07 06:38:08;;;;;;;10.30;6.70;;;;;;;27.45;39.39;96885.16;107955;1270;22534;-79
2022/09/07 06:40:41;;;;;;;11.30;6.00;;;;;;;28.02;38.72;96884.86;107926;1270;22522;-79
2022/09/07 06:43:12;;;;;;;9.20;6.10;;;;;;;27.94;36.84;96884.98;107869;1270;44971;-79
2022/09/07 06:45:43;;;;;;;8.30;5.80;;;;;;;27.62;38.25;96885.87;107917;1270;23055;-79
2022/09/07 06:48:14;;;;;;;10.10;6.90;;;;;;;27.92;36.70;96885.45;107924;1270;22526;-79
2022/09/07 06:50:54;;;;;;;8.60;5.70;;;;;;;27.55;36.62;96890.19;107944;1270;26753;-79
2022/09/07 06:53:24;;;;;;;;;;;;;;;27.08;37.14;96887.90;107878;1270;27838;-79
2022/09/07 06:55:53;;;;;;;;;;;;;;;27.31;38.17;96888.36;107963;1270;24234;-80
2022/09/07 06:58:25;;;;;;;9.30;6.90;;;;;;;27.91;38.48;96885.91;107959;1270;22612;-79
2022/09/07 07:00:57;;;;;;;6.50;5.30;;;;;;;29.28;38.17;96886.80;107924;1270;22537;-79
2022/09/07 07:03:28;;;;;;;7.30;5.50;;;;;;;30.64;37.30;96890.96;107874;1270;34973;-79
2022/09/07 07:05:59;;;;;;;9.00;5.70;;;;;;;31.11;35.33;96892.38;107951;1270;22544;-79
2022/09/07 07:08:33;;;;;;;7.80;5.70;;;;;;;31.33;35.53;96891.86;107930;1270;25136;-79
2022/09/07 07:11:07;;;;;;;9.20;5.70;;;;;;;31.83;34.14;96888.20;107946;1270;22534;-80
2022/09/07 07:13:40;;;;;;;7.50;6.10;;;;;;;31.79;33.54;96889.11;107861;1270;24256;-79
2022/09/07 07:16:14;;;;;;;8.00;5.40;;;;;;;31.46;32.74;96890.23;107940;1270;26556;-79
2022/09/07 07:18:47;;;;;;;6.50;5.50;;;;;;;31.20;32.88;96889.03;107979;1270;22528;-79
2022/09/07 07:21:18;;;;;;;8.00;5.30;;;;;;;31.20;32.46;96887.30;107962;1270;22525;-79
2022/09/07 07:23:53;;;;;;;7.60;5.20;;;;;;;31.19;32.86;96894.21;107792;1270;29755;-79
2022/09/07 07:26:26;;;;;;;6.60;5.40;;;;;;;31.01;32.20;96889.88;107875;1270;22689;-79
2022/09/07 07:28:58;;;;;;;7.10;5.20;;;;;;;31.54;33.62;96892.65;107885;1270;22548;-79
2022/09/07 07:31:31;;;;;;;6.50;5.30;;;;;;;32.69;33.44;96889.57;107901;1270;22564;-79
2022/09/07 07:34:03;;;;;;;6.20;5.60;;;;;;;33.67;32.16;96892.34;107866;1270;25574;-79
2022/09/07 07:36:35;;;;;;;6.90;5.80;;;;;;;33.62;30.09;96895.66;107930;1270;22544;-79
2022/09/07 07:39:06;;;;;;;7.60;6.10;;;;;;;32.83;29.32;96897.27;107842;1270;22550;-79
2022/09/07 07:41:37;;;;;;;9.10;6.70;;;;;;;32.06;30.36;96893.85;107955;1270;22527;-79
2022/09/07 07:44:08;;;;;;;7.50;6.20;;;;;;;31.62;29.79;96900.64;107936;1270;22658;-79
2022/09/07 07:46:39;;;;;;;6.10;5.50;;;;;;;31.10;31.45;96901.80;107927;1270;24397;-79
2022/09/07 07:49:11;;;;;;;9.40;6.20;;;;;;;31.44;30.79;96897.94;107952;1270;23890;-79
2022/09/07 07:51:42;;;;;;;8.00;6.60;;;;;;;31.59;31.29;96898.41;107828;1270;24253;-78
2022/09/07 07:54:13;;;;;;;8.20;5.90;;;;;;;32.14;30.87;96894.05;107936;1270;22539;-79
2022/09/07 07:56:45;;;;;;;7.70;5.80;;;;;;;32.07;29.88;96894.15;107929;1270;22533;-79
2022/09/07 07:59:16;;;;;;;17.10;15.50;;;;;;;31.93;30.67;96894.97;107926;1270;22515;-79
2022/09/07 08:01:47;;;;;;;11.80;10.10;;;;;;;32.19;29.44;96892.75;107895;1270;24306;-78
2022/09/07 08:04:18;;;;;;;6.50;5.80;;;;;;;31.60;29.51;96891.89;107950;1270;25209;-79
2022/09/07 08:06:49;;;;;;;6.10;5.40;;;;;;;31.19;30.14;96893.41;107926;1270;22654;-79
2022/09/07 08:09:23;;;;;;;7.20;6.20;;;;;;;31.51;31.27;96892.52;107881;1270;24488;-79
2022/09/07 08:11:54;;;;;;;7.70;5.40;;;;;;;32.19;29.11;96889.45;107848;1270;26524;-78
2022/09/07 08:14:25;;;;;;;7.40;6.40;;;;;;;31.70;29.28;96891.62;107910;1270;24158;-79
2022/09/07 08:16:57;;;;;;;7.90;6.30;;;;;;;32.15;29.50;96889.42;107926;1270;22554;-79
2022/09/07 08:19:28;;;;;;;6.80;5.20;;;;;;;32.77;29.73;96884.98;107897;1270;22527;-79
2022/09/07 08:21:59;;;;;;;6.40;5.00;;;;;;;33.75;28.97;96887.30;107827;1270;26466;-78
2022/09/07 08:24:30;;;;;;;7.00;5.20;;;;;;;34.28;27.66;96890.77;107931;1270;24331;-79
2022/09/07 08:27:01;;;;;;;7.50;5.50;;;;;;;33.72;27.27;96887.21;107930;1270;22542;-79
2022/09/07 08:29:33;;;;;;;8.10;4.90;;;;;;;33.96;27.58;96885.55;107879;1270;22518;-79
2022/09/07 08:32:05;;;;;;;6.80;5.00;;;;;;;34.32;28.19;96880.75;107906;1270;29311;-79
2022/09/07 08:34:39;;;;;;;6.90;5.00;;;;;;;35.31;28.28;96881.51;107923;1270;22914;-79
2022/09/07 08:37:10;;;;;;;7.60;5.20;;;;;;;36.08;27.38;96882.20;107935;1270;22534;-79
2022/09/07 08:39:41;;;;;;;6.90;5.30;;;;;;;36.31;26.99;96877.95;107881;1270;22531;-79
2022/09/07 08:42:41;;;;;;;7.50;5.30;;;;;;;36.23;26.70;96874.10;107814;1270;25300;-78
2022/09/07 08:45:11;;;;;;;;;;;;;;;35.77;27.06;96876.30;107978;1270;25357;-79
2022/09/07 08:47:46;;;;;;;7.10;5.20;;;;;;;36.01;26.67;96875.73;107952;1270;22574;-79
2022/09/07 08:50:23;;;;;;;7.00;5.50;;;;;;;36.01;27.39;96874.84;107982;1270;25667;-79
2022/09/07 08:52:59;;;;;;;8.40;6.00;;;;;;;35.67;26.86;96873.44;107846;1270;26441;-79
2022/09/07 08:55:33;;;;;;;9.00;6.30;;;;;;;35.33;26.85;96869.42;108001;1270;22570;-79
2022/09/07 08:58:11;;;;;;;8.00;5.60;;;;;;;34.17;27.33;96863.45;107926;1270;22572;-79
2022/09/07 09:00:43;;;;;;;8.50;5.70;;;;;;;33.39;28.94;96866.03;107933;1270;23094;-79
2022/09/07 09:03:21;;;;;;;9.00;5.10;;;;;;;33.01;28.51;96858.77;107897;1270;29039;-79
2022/09/07 09:06:02;;;;;;;7.70;5.70;;;;;;;31.27;29.06;96859.19;107890;1270;22729;-79
2022/09/07 09:08:51;;;;;;;7.20;5.60;;;;;;;29.26;30.98;96853.21;107941;1270;22550;-79
2022/09/07 09:11:34;;;;;;;9.20;5.80;;;;;;;27.16;33.95;96852.62;107927;1271;22601;-79
2022/09/07 09:14:11;;;;;;;8.90;5.70;;;;;;;25.73;36.64;96850.95;107869;1270;25086;-79
2022/09/07 09:16:46;;;;;;;6.20;4.90;;;;;;;25.08;38.36;96846.58;107878;1270;24400;-79
2022/09/07 09:19:45;;;;;;;8.50;5.20;;;;;;;24.64;39.16;96845.11;107926;1270;22531;-79
2022/09/07 09:22:18;;;;;;;11.50;6.80;;;;;;;24.21;39.61;96846.71;107803;1270;32780;-79
2022/09/07 09:24:53;;;;;;;6.40;5.10;;;;;;;23.23;41.27;96849.97;107975;1270;22563;-79
2022/09/07 09:27:24;;;;;;;8.60;5.40;;;;;;;22.77;43.08;96851.77;107945;1270;23892;-79
2022/09/07 09:29:55;;;;;;;7.60;5.00;;;;;;;22.85;43.52;96849.36;107987;1270;22589;-79
2022/09/07 09:32:38;;;;;;;8.00;5.20;;;;;;;22.80;43.86;96851.54;107874;1270;30520;-79
2022/09/07 09:35:19;;;;;;;7.50;5.30;;;;;;;22.94;44.23;96856.20;107889;1270;23473;-78
2022/09/07 09:37:51;;;;;;;8.90;5.70;;;;;;;22.80;44.75;96854.17;107931;1270;23133;-79
2022/09/07 09:40:30;;;;;;;9.20;5.50;;;;;;;22.84;45.51;96855.96;107962;1270;22538;-79
2022/09/07 09:43:05;;;;;;;6.10;4.90;;;;;;;23.13;45.23;96851.83;107837;1270;39389;-78
2022/09/07 09:45:42;;;;;;;7.70;5.30;;;;;;;23.20;44.51;96848.20;107921;1270;22547;-79
2022/09/07 09:48:21;;;;;;;8.40;5.60;;;;;;;23.27;45.27;96846.27;107877;1271;25566;-79
2022/09/07 09:50:57;;;;;;;10.10;5.90;;;;;;;23.46;44.88;96845.72;107907;1270;22696;-79
2022/09/07 09:53:32;;;;;;;9.60;6.70;;;;;;;23.58;44.86;96846.06;107872;1270;28461;-79
2022/09/07 09:56:05;;;;;;;8.60;6.00;;;;;;;23.52;44.84;96845.70;107913;1270;22632;-79
2022/09/07 09:58:39;;;;;;;10.00;6.90;;;;;;;23.57;44.87;96845.52;107953;1271;25239;-79
2022/09/07 10:01:24;;;;;;;10.60;6.40;;;;;;;23.67;44.87;96843.08;107932;1271;22588;-78
2022/09/07 10:03:55;;;;;;;10.30;6.30;;;;;;;23.50;45.02;96838.39;107867;1271;24292;-79
2022/09/07 10:06:27;;;;;;;7.70;6.50;;;;;;;23.48;45.15;96835.88;107934;1270;22544;-79
2022/09/07 10:09:00;;;;;;;12.30;6.40;;;;;;;23.15;45.67;96833.27;107968;1271;25230;-79
2022/09/07 10:11:46;;;;;;;10.70;7.00;;;;;;;23.34;46.22;96832.80;107964;1271;24183;-79
2022/09/07 10:14:26;;;;;;;9.50;6.40;;;;;;;23.53;45.82;96830.33;107962;1270;22529;-79
2022/09/07 10:16:58;;;;;;;11.30;6.70;;;;;;;23.47;45.58;96835.30;107907;1270;22652;-79
2022/09/07 10:19:37;;;;;;;9.80;6.40;;;;;;;23.15;46.70;96840.61;107934;1270;25408;-79
2022/09/07 10:22:24;;;;;;;9.20;6.20;;;;;;;23.30;46.60;96840.00;107916;1270;25293;-79
2022/09/07 10:24:56;;;;;;;9.50;6.00;;;;;;;23.48;47.03;96835.98;107965;1271;22542;-79
2022/09/07 10:27:36;;;;;;;9.10;6.10;;;;;;;23.76;47.25;96838.16;107899;1270;25312;-79
2022/09/07 10:30:15;;;;;;;8.30;6.90;;;;;;;23.98;46.98;96834.52;107947;1271;22580;-79
2022/09/07 10:32:58;;;;;;;9.70;6.50;;;;;;;23.93;46.90;96831.05;107900;1271;26376;-79
2022/09/07 10:35:31;;;;;;;9.60;6.20;;;;;;;24.05;46.85;96832.48;107958;1270;22545;-79
2022/09/07 10:38:14;;;;;;;9.50;6.10;;;;;;;24.21;46.96;96830.46;108008;1271;22534;-79
2022/09/07 10:40:50;;;;;;;10.70;6.50;;;;;;;24.34;46.81;96825.43;107962;1271;22522;-79
2022/09/07 10:43:34;;;;;;;7.70;5.70;;;;;;;24.26;46.46;96823.50;107854;1271;40434;-79
2022/09/07 10:46:32;;;;;;;8.30;6.20;;;;;;;23.96;46.20;96828.33;107943;1271;22618;-78
2022/09/07 10:49:19;;;;;;;8.20;5.80;;;;;;;23.62;46.49;96822.88;107950;1271;22535;-79
2022/09/07 10:52:01;;;;;;;9.20;6.20;;;;;;;23.50;46.46;96820.92;107880;1270;23544;-78
2022/09/07 10:54:44;;;;;;;9.00;6.00;;;;;;;22.93;47.43;96821.42;107973;1271;23111;-79
2022/09/07 10:57:29;;;;;;;8.50;5.90;;;;;;;22.99;48.59;96814.92;107920;1271;22540;-79
2022/09/07 11:00:09;;;;;;;9.40;6.10;;;;;;;23.30;48.38;96815.33;107946;1271;25372;-79
2022/09/07 11:03:02;;;;;;;8.80;5.70;;;;;;;23.42;47.94;96816.90;107873;1271;44023;-78
2022/09/07 11:05:40;;;;;;;9.70;6.30;;;;;;;23.55;48.87;96818.08;107903;1271;25306;-79
2022/09/07 11:08:26;;;;;;;8.70;5.90;;;;;;;23.74;48.40;96818.77;107961;1271;22535;-79
2022/09/07 11:11:03;;;;;;;8.50;5.70;;;;;;;23.80;48.53;96816.96;107942;1271;22524;-79
2022/09/07 11:13:38;;;;;;;9.20;6.00;;;;;;;23.70;47.62;96818.85;107867;1271;30514;-79
2022/09/07 11:16:15;;;;;;;8.40;5.70;;;;;;;23.57;48.44;96818.82;107924;1271;22558;-79
2022/09/07 11:18:54;;;;;;;8.80;5.80;;;;;;;23.77;48.36;96818.20;107949;1271;22684;-79
2022/09/07 11:21:29;;;;;;;7.60;5.70;;;;;;;23.78;48.18;96816.07;107966;1270;24336;-78
2022/09/07 11:24:08;;;;;;;7.70;5.80;;;;;;;23.84;48.91;96815.56;107875;1271;26275;-78
2022/09/07 11:26:46;;;;;;;8.50;5.80;;;;;;;23.77;47.57;96814.58;107946;1271;25242;-79
2022/09/07 11:29:21;;;;;;;8.20;5.80;;;;;;;23.20;48.58;96816.98;107936;1271;22543;-79
2022/09/07 11:31:57;;;;;;;7.50;5.30;;;;;;;23.25;49.05;96816.79;107868;1271;32147;-78
2022/09/07 11:34:37;;;;;;;8.80;6.30;;;;;;;23.06;48.38;96817.77;107900;1271;24305;-79
2022/09/07 11:37:14;;;;;;;7.80;5.30;;;;;;;22.92;49.41;96814.90;107958;1271;24278;-79
2022/09/07 11:39:51;;;;;;;7.90;5.10;;;;;;;23.04;48.96;96812.31;107926;1271;22562;-79
2022/09/07 11:42:31;;;;;;;7.70;5.00;;;;;;;22.95;48.90;96808.33;107838;1271;30030;-79
2022/09/07 11:45:06;;;;;;;9.00;6.10;;;;;;;23.03;49.08;96803.81;107945;1271;22556;-79
2022/09/07 11:47:43;;;;;;;8.50;5.70;;;;;;;23.21;49.51;96803.72;107912;1271;22554;-79
2022/09/07 11:50:18;;;;;;;8.90;5.70;;;;;;;23.32;49.14;96800.92;107885;1271;23314;-79
2022/09/07 11:52:55;;;;;;;5.90;5.10;;;;;;;23.54;49.47;96801.20;107836;1271;24170;-79
2022/09/07 11:55:29;;;;;;;7.90;5.70;;;;;;;23.69;48.30;96797.56;107916;1272;22541;-79
2022/09/07 11:58:37;;;;;;;7.10;5.30;;;;;;;23.62;49.07;96794.96;107925;1271;22543;-79